Dickinson, ND

4:14 AM MST on February 21, 2018 (GMT -0700)
800 Block of Park Avenue | | Change Station
Active Advisory: Wind Chill Advisory

Elev 2434 ft 46.89 °N, 102.79 °W | Updated 10 seconds ago

Clear
Clear
-5.5 °F
Feels Like -15 °F
N
4.0
Wind Variable Wind from WSW

Today
High -- | Low -- °F
--% Chance of Precip.
Yesterday
High -- | Low -- °F
Precip. -- in
Pressure 30.43 in
Visibility 10.0 miles
Clouds Clear
Windchill -15 °F
Dew Point -11 °F
Humidity 75%
Rainfall 0.00 in
Snow Depth Not available.
6:45 AM 5:25 PM
Waxing Crescent, 30% visible
METAR KDIK 211056Z AUTO 26012KT 10SM CLR M19/M24 A3023 RMK AO2 SLP303 T11941244
Pressure 30.43 in
Visibility 10.0 miles
Clouds Clear
Windchill -15 °F
Dew Point -11 °F
Humidity 75%
Rainfall 0.00 in
Snow Depth Not available.
6:45 AM 5:25 PM
Waxing Crescent, 30% visible
METAR KDIK 211056Z AUTO 26012KT 10SM CLR M19/M24 A3023 RMK AO2 SLP303 T11941244

Get Your Daily Forecast Email!

Thanks for signing up!

Be on the lookout for a verification email in your inbox.

You'll start receiving severe weather alerts in your inbox..

×

10-Day Weather Forecast

Almanac

Astronomy

Feb. 21, 2018 Rise Set
Actual Time
Civil Twilight
Nautical Twilight
Astronomical Twilight
Moon
Length of Visible Light
Length of Day
Tomorrow will be .
, % of the Moon is Illuminated

Today's Extremes

State Highs State Lows

Community

WunderPhotos

Category 6

Welcome to Category 6. This is the collective home for Weather Underground's featured writeups by Dr. Jeff Masters (right), Bob Henson (left), Chris Burt, and other regular contributors.

Nearby

Air Quality

  Air Quality AQ Index Pollutant
Not available.

Snow Depth

Station Depth Elevation

Earthquake Activity

City Distance Mag. Time & Date
Minimum magnitude displayed is 2.5.

Coastal Water Temperatures

Place Temperature

Stations

Nearby Weather Stations

Station Location Temp. Windchill Dew Point Humidity Wind Precip. Elev Updated Type
                   

Watches & Warnings

Wind Chill Advisory
Issued: 2:38 AM MST Feb. 21, 2018 – National Weather Service

... Wind Chill Advisory remains in effect until 10 am CST /9 am
MST/ this morning...

* what... very cold wind chills expected. Expect wind chills as
low as 35 below zero.

* Where... all of western and central North Dakota including the
James River Valley.

* When... until 10 am CST Wednesday.

* Additional details... the cold wind chills will cause frostbite
on exposed skin in as little as 30 minutes.

Precautionary/preparedness actions...

A Wind Chill Advisory means that cold air and the wind will
combine to create low wind chills. Frostbite and hypothermia can
occur if precautions are not taken. Make sure you wear a hat and
gloves.



Jns